createdAt,value
2022-08-03T00:00:23.628Z,1020.0
2022-08-03T00:15:23.743Z,1020.0
2022-08-03T00:30:23.720Z,1020.0
2022-08-03T00:45:23.711Z,1020.0
2022-08-03T01:00:23.837Z,1020.0
2022-08-03T01:15:23.783Z,1020.0
2022-08-03T01:30:24.037Z,1020.0
2022-08-03T01:45:23.931Z,1020.0
2022-08-03T02:00:23.865Z,1020.0
2022-08-03T02:15:23.956Z,1020.0
2022-08-03T02:30:24.124Z,1020.0
2022-08-03T02:45:23.945Z,1020.0
2022-08-03T03:00:28.156Z,1020.0
2022-08-03T03:15:24.066Z,1020.0
2022-08-03T03:30:23.976Z,1020.0
2022-08-03T03:45:24.190Z,1020.0
2022-08-03T04:00:24.642Z,1020.0
2022-08-03T04:15:24.110Z,1020.0
2022-08-03T04:30:24.101Z,1020.0
2022-08-03T04:45:24.176Z,1020.0
2022-08-03T05:00:24.077Z,1020.0
2022-08-03T05:15:24.140Z,1020.0
2022-08-03T05:30:30.620Z,1020.0
2022-08-03T05:45:28.125Z,1020.0
2022-08-03T06:00:24.294Z,1020.0
2022-08-03T06:15:33.319Z,1020.0
2022-08-03T06:30:33.367Z,1020.0
2022-08-03T06:45:33.404Z,1020.0
2022-08-03T07:00:33.448Z,1020.0
2022-08-03T07:15:54.656Z,1020.0
2022-08-03T07:30:23.465Z,1020.0
2022-08-03T07:45:23.497Z,1020.0
2022-08-03T08:00:23.791Z,1020.0
2022-08-03T08:15:23.420Z,1019.7
2022-08-03T08:30:23.424Z,1019.0
2022-08-03T08:45:23.553Z,1019.0
2022-08-03T09:00:23.596Z,1019.0
2022-08-03T09:15:23.677Z,1019.0
2022-08-03T09:30:33.781Z,1019.0
2022-08-03T09:45:23.639Z,1019.0
2022-08-03T10:00:24.052Z,1019.0
2022-08-03T10:16:21.351Z,1019.0
2022-08-03T10:30:26.144Z,1019.0
2022-08-03T10:45:23.748Z,1019.0
2022-08-03T11:00:24.026Z,1019.0
2022-08-03T11:15:23.654Z,1018.7
2022-08-03T11:30:27.497Z,1018.0
2022-08-03T11:45:23.727Z,1018.0
2022-08-03T12:00:26.176Z,1018.0
2022-08-03T12:15:23.962Z,1018.0
2022-08-03T12:30:23.806Z,1018.0
2022-08-03T12:45:23.821Z,1018.0
2022-08-03T13:00:29.349Z,1018.0
2022-08-03T13:15:24.455Z,1018.0
2022-08-03T13:30:29.900Z,1018.0
2022-08-03T13:45:23.910Z,1018.0
2022-08-03T14:00:27.165Z,1017.0
2022-08-03T14:15:24.038Z,1017.0
2022-08-03T14:30:23.792Z,1017.0
2022-08-03T14:45:24.000Z,1017.0
2022-08-03T15:00:25.742Z,1017.0
2022-08-03T15:15:24.011Z,1017.0
2022-08-03T15:30:24.380Z,1017.0
2022-08-03T15:45:24.151Z,1017.0
2022-08-03T16:00:33.516Z,1017.0
2022-08-03T16:15:24.358Z,1017.0
2022-08-03T16:30:24.286Z,1016.7
2022-08-03T16:45:24.226Z,1016.5
2022-08-03T17:00:41.115Z,1016.0
2022-08-03T17:15:37.710Z,1016.0
2022-08-03T17:30:25.280Z,1016.0
2022-08-03T17:45:23.283Z,1016.0
2022-08-03T18:00:23.938Z,1017.0
2022-08-03T18:15:23.536Z,1017.0
2022-08-03T18:30:27.681Z,1017.0
2022-08-03T18:45:56.469Z,1017.0
2022-08-03T19:00:24.966Z,1017.0
2022-08-03T19:15:36.369Z,1017.0
2022-08-03T19:30:26.271Z,1017.0
2022-08-03T19:45:23.443Z,1017.0
2022-08-03T20:00:26.267Z,1017.0
2022-08-03T20:15:31.762Z,1017.0
2022-08-03T20:30:26.384Z,1017.0
2022-08-03T20:46:01.244Z,1017.0
2022-08-03T21:00:23.580Z,1017.0
2022-08-03T21:16:12.564Z,1017.0
2022-08-03T21:30:24.609Z,1017.0
2022-08-03T21:45:23.928Z,1017.0
2022-08-03T22:00:36.305Z,1017.0
2022-08-03T22:15:23.746Z,1017.0
2022-08-03T22:30:23.990Z,1017.0
2022-08-03T22:46:07.735Z,1017.0
2022-08-03T23:00:24.031Z,1017.3
2022-08-03T23:15:23.862Z,1018.0
2022-08-03T23:30:31.196Z,1018.0
2022-08-03T23:45:24.052Z,1018.0
